createdAt,value
2022-12-20T00:00:09.839Z,101368.58
2022-12-20T00:05:08.756Z,101372.77
2022-12-20T00:10:09.134Z,101357.56999999999
2022-12-20T00:15:09.360Z,101360.69
2022-12-20T00:20:09.344Z,101345.65
2022-12-20T00:25:08.897Z,101333.56
2022-12-20T00:30:09.903Z,101323.69
2022-12-20T00:35:09.599Z,101316.63
2022-12-20T00:40:09.260Z,101312.47
2022-12-20T00:45:09.491Z,101316.9
2022-12-20T00:50:09.203Z,101318.3
2022-12-20T00:55:08.685Z,101319.94
2022-12-20T01:00:09.588Z,101308.98999999999
2022-12-20T01:05:08.628Z,101307.23000000001
2022-12-20T01:10:10.047Z,101302.44
2022-12-20T01:15:10.363Z,101302.06
2022-12-20T01:20:09.223Z,101295.67
2022-12-20T01:25:08.997Z,101291.35
2022-12-20T01:30:09.791Z,101278.31999999999
2022-12-20T01:35:08.894Z,101282.84999999999
2022-12-20T01:40:09.826Z,101267.62999999999
2022-12-20T01:45:22.067Z,101251.67
2022-12-20T01:50:08.858Z,101237.67
2022-12-20T01:55:13.664Z,101232.06
2022-12-20T02:00:11.967Z,101221.5
2022-12-20T02:05:08.874Z,101212.44
2022-12-20T02:10:11.026Z,101205.52
2022-12-20T02:15:26.270Z,101198.95
2022-12-20T02:20:27.870Z,101203.8
2022-12-20T02:25:20.693Z,101189.29000000001
2022-12-20T02:30:13.925Z,101186.51
2022-12-20T02:35:11.768Z,101189.43000000001
2022-12-20T02:40:09.337Z,101184.55
2022-12-20T02:45:19.807Z,101179.69
2022-12-20T02:50:10.048Z,101173.75
2022-12-20T02:55:08.613Z,101171.43
2022-12-20T03:00:13.064Z,101176.0
2022-12-20T03:05:08.528Z,101165.58
2022-12-20T03:10:10.187Z,101160.13
2022-12-20T03:15:09.420Z,101149.87999999999
2022-12-20T03:20:10.338Z,101158.61
2022-12-20T03:25:08.714Z,101158.56
2022-12-20T03:30:09.201Z,101150.8
2022-12-20T03:35:08.769Z,101163.99
2022-12-20T03:40:10.566Z,101151.45
2022-12-20T03:45:09.332Z,101142.08
2022-12-20T03:50:08.898Z,101146.41
2022-12-20T03:55:09.319Z,101136.11
2022-12-20T04:00:09.438Z,101141.97
2022-12-20T04:05:08.774Z,101144.64
2022-12-20T04:10:08.983Z,101142.74
2022-12-20T04:15:09.253Z,101143.22
2022-12-20T04:20:20.157Z,101150.48000000001
2022-12-20T04:25:08.458Z,101132.83
2022-12-20T04:30:09.780Z,101114.39
2022-12-20T04:35:08.790Z,101100.23999999999
2022-12-20T04:40:09.224Z,101097.85
2022-12-20T04:45:09.560Z,101105.62
2022-12-20T04:50:09.180Z,101112.72
2022-12-20T04:55:08.776Z,101126.45
2022-12-20T05:00:09.854Z,101121.23
2022-12-20T05:05:08.764Z,101113.45
2022-12-20T05:10:08.828Z,101117.28
2022-12-20T05:15:09.961Z,101104.76
2022-12-20T05:20:09.109Z,101103.95999999999
2022-12-20T05:25:19.481Z,101097.94
2022-12-20T05:30:09.381Z,101099.17
2022-12-20T05:35:08.551Z,101100.48000000001
2022-12-20T05:40:09.537Z,101086.05
2022-12-20T05:45:10.296Z,101083.37
2022-12-20T05:50:12.241Z,101095.76
2022-12-20T05:55:09.485Z,101091.87
2022-12-20T06:00:11.147Z,101093.98999999999
2022-12-20T06:05:08.542Z,101086.41
2022-12-20T06:10:09.318Z,101089.31
2022-12-20T06:15:09.851Z,101090.06000000001
2022-12-20T06:20:08.863Z,101090.0
2022-12-20T06:25:08.639Z,101091.90999999999
2022-12-20T06:30:10.487Z,101098.24
2022-12-20T06:35:09.067Z,101098.99
2022-12-20T06:40:10.387Z,101099.17
2022-12-20T06:45:08.951Z,101099.98000000001
2022-12-20T06:50:08.484Z,101088.06
2022-12-20T06:55:08.520Z,101089.81
2022-12-20T07:00:09.533Z,101102.03
2022-12-20T07:05:08.564Z,101109.49
2022-12-20T07:10:09.225Z,101105.70999999999
2022-12-20T07:15:09.372Z,101101.59
2022-12-20T07:20:13.321Z,101106.9
2022-12-20T07:25:08.690Z,101106.12
2022-12-20T07:30:08.924Z,101102.31999999999
2022-12-20T07:35:10.021Z,101100.22
2022-12-20T07:40:11.162Z,101101.72
2022-12-20T07:45:09.035Z,101102.85
2022-12-20T07:50:08.732Z,101096.90000000001
2022-12-20T07:55:10.959Z,101099.01999999999
2022-12-20T08:00:09.480Z,101095.34
2022-12-20T08:05:09.240Z,101092.17
2022-12-20T08:10:11.462Z,101090.75
2022-12-20T08:15:08.930Z,101091.63
2022-12-20T08:20:08.767Z,101097.18000000001
2022-12-20T08:25:10.813Z,101090.3
2022-12-20T08:30:09.869Z,101089.83
2022-12-20T08:35:08.471Z,101085.23
2022-12-20T08:40:09.163Z,101084.48
2022-12-20T08:45:08.847Z,101081.28
2022-12-20T08:50:08.660Z,101091.25
2022-12-20T08:55:08.477Z,101084.18000000001
2022-12-20T09:00:10.361Z,101085.19
2022-12-20T09:05:09.105Z,101082.39
2022-12-20T09:10:09.593Z,101083.48
2022-12-20T09:15:09.727Z,101078.68999999999
2022-12-20T09:20:08.865Z,101075.84000000001
2022-12-20T09:25:08.857Z,101078.59999999999
2022-12-20T09:30:08.644Z,101076.18
2022-12-20T09:35:08.585Z,101077.29000000001
2022-12-20T09:40:16.549Z,101072.97
2022-12-20T09:45:13.097Z,101058.33
2022-12-20T09:50:15.437Z,101053.86
2022-12-20T09:55:18.516Z,101053.22
2022-12-20T10:00:13.246Z,101062.59
2022-12-20T10:05:14.565Z,101067.62999999999
2022-12-20T10:10:27.235Z,101060.38
2022-12-20T10:15:18.465Z,101052.56000000001
2022-12-20T10:20:24.784Z,101042.24
2022-12-20T10:25:16.539Z,101050.48000000001
2022-12-20T10:30:12.359Z,101051.05
2022-12-20T10:35:22.028Z,101055.83
2022-12-20T10:40:39.340Z,101052.69
2022-12-20T10:45:29.851Z,101044.84
2022-12-20T10:50:13.529Z,101044.28
2022-12-20T10:55:28.003Z,101035.65999999999
2022-12-20T11:00:27.089Z,101037.89
2022-12-20T11:05:22.110Z,101027.17
2022-12-20T11:10:18.687Z,101012.92
2022-12-20T11:15:11.531Z,100990.41
2022-12-20T11:20:26.954Z,100981.87000000001
2022-12-20T11:25:28.150Z,100976.34000000001
2022-12-20T11:30:15.092Z,100976.75
2022-12-20T11:35:13.699Z,100978.95999999999
2022-12-20T11:40:24.727Z,100987.0
2022-12-20T11:45:20.038Z,100978.85
2022-12-20T11:50:24.550Z,100976.23
2022-12-20T11:55:19.693Z,100970.68000000001
2022-12-20T12:00:13.546Z,100968.14
2022-12-20T12:05:17.850Z,100962.37999999999
2022-12-20T12:10:15.603Z,100960.74
2022-12-20T12:15:21.679Z,100972.09
2022-12-20T12:20:21.126Z,100965.45999999999
2022-12-20T12:25:12.981Z,100950.40000000001
2022-12-20T12:30:12.579Z,100949.25
2022-12-20T12:35:22.925Z,100948.01999999999
2022-12-20T12:40:19.412Z,100945.4
2022-12-20T12:45:15.505Z,100953.03
2022-12-20T12:50:19.247Z,100965.59
2022-12-20T12:55:28.155Z,100952.95
2022-12-20T13:00:27.892Z,100943.28
2022-12-20T13:05:28.056Z,100959.48
2022-12-20T13:10:30.452Z,100961.22
2022-12-20T13:15:29.496Z,100959.05
2022-12-20T13:20:17.520Z,100966.54999999999
2022-12-20T13:25:28.312Z,100973.58
2022-12-20T13:30:28.250Z,100973.35
2022-12-20T13:35:27.967Z,100986.01999999999
2022-12-20T13:40:18.674Z,100985.39
2022-12-20T13:45:13.488Z,100996.95
2022-12-20T13:50:22.229Z,100987.39
2022-12-20T13:55:22.108Z,100986.73999999999
2022-12-20T14:00:15.376Z,100990.62
2022-12-20T14:05:14.663Z,100987.77
2022-12-20T14:10:19.992Z,100982.53
2022-12-20T14:15:22.576Z,100968.48999999999
2022-12-20T14:20:14.086Z,100965.18
2022-12-20T14:25:10.970Z,100946.15
2022-12-20T14:30:26.877Z,100948.41
2022-12-20T14:35:18.417Z,100953.09
2022-12-20T14:40:17.467Z,100954.66
2022-12-20T14:45:18.001Z,100957.53
2022-12-20T14:50:18.347Z,100954.83
2022-12-20T14:55:15.635Z,100956.03
2022-12-20T15:00:14.288Z,100943.26
2022-12-20T15:05:27.909Z,100948.85
2022-12-20T15:10:07.992Z,100931.8
2022-12-20T15:15:28.727Z,100931.2
2022-12-20T15:20:11.615Z,100927.12
2022-12-20T15:25:15.406Z,100926.48000000001
2022-12-20T15:30:12.785Z,100924.2
2022-12-20T15:35:12.258Z,100928.09
2022-12-20T15:40:13.085Z,100925.57
2022-12-20T15:45:12.163Z,100918.31
2022-12-20T15:50:09.489Z,100909.99
2022-12-20T15:55:10.159Z,100910.53
2022-12-20T16:00:11.214Z,100907.5
2022-12-20T16:05:10.774Z,100907.92
2022-12-20T16:10:12.070Z,100907.17
2022-12-20T16:15:19.544Z,100907.68000000001
2022-12-20T16:20:08.839Z,100904.71
2022-12-20T16:25:22.992Z,100906.48
2022-12-20T16:30:09.581Z,100906.62
2022-12-20T16:35:21.891Z,100910.67
2022-12-20T16:40:09.320Z,100907.48
2022-12-20T16:45:12.745Z,100906.95
2022-12-20T16:50:09.088Z,100904.13
2022-12-20T16:55:13.792Z,100905.5
2022-12-20T17:00:15.033Z,100898.27
2022-12-20T17:05:19.379Z,100898.06999999999
2022-12-20T17:10:09.158Z,100906.14
2022-12-20T17:15:19.401Z,100896.01
2022-12-20T17:20:08.298Z,100899.22
2022-12-20T17:25:17.483Z,100902.64
2022-12-20T17:30:09.037Z,100882.44
2022-12-20T17:35:18.557Z,100851.03
2022-12-20T17:40:11.779Z,100830.90999999999
2022-12-20T17:45:20.077Z,100861.61
2022-12-20T17:50:08.508Z,100874.39
2022-12-20T17:55:14.920Z,100869.06
2022-12-20T18:00:16.811Z,100877.53
2022-12-20T18:05:10.186Z,100868.1
2022-12-20T18:10:08.981Z,100860.74
2022-12-20T18:15:09.345Z,100857.93
2022-12-20T18:20:09.116Z,100844.24
2022-12-20T18:25:08.792Z,100842.03
2022-12-20T18:30:09.715Z,100834.61
2022-12-20T18:35:08.729Z,100829.85
2022-12-20T18:40:08.697Z,100848.5
2022-12-20T18:45:10.295Z,100842.07
2022-12-20T18:50:08.209Z,100839.06
2022-12-20T18:55:07.953Z,100840.01
2022-12-20T19:00:09.036Z,100845.72
2022-12-20T19:05:08.131Z,100832.23000000001
2022-12-20T19:10:08.329Z,100847.13
2022-12-20T19:15:08.472Z,100845.31
2022-12-20T19:20:08.091Z,100845.37
2022-12-20T19:25:08.108Z,100845.33
2022-12-20T19:30:08.509Z,100842.17
2022-12-20T19:35:45.197Z,100838.08
2022-12-20T19:40:08.334Z,100837.86
2022-12-20T19:45:09.318Z,100824.58
2022-12-20T19:50:08.225Z,100825.26000000001
2022-12-20T19:55:07.768Z,100824.35
2022-12-20T20:00:09.372Z,100821.36
2022-12-20T20:05:14.490Z,100829.22
2022-12-20T20:10:08.949Z,100814.03
2022-12-20T20:15:08.198Z,100810.05
2022-12-20T20:20:09.530Z,100796.61
2022-12-20T20:25:08.224Z,100805.33
2022-12-20T20:30:10.223Z,100794.64
2022-12-20T20:35:08.573Z,100783.47
2022-12-20T20:40:08.406Z,100772.03
2022-12-20T20:45:08.869Z,100768.8
2022-12-20T20:50:10.059Z,100759.73
2022-12-20T20:55:08.282Z,100773.6
2022-12-20T21:00:11.128Z,100778.99
2022-12-20T21:05:58.697Z,100792.3
2022-12-20T21:10:08.689Z,100793.42
2022-12-20T21:15:23.600Z,100778.31
2022-12-20T21:20:10.202Z,100771.76
2022-12-20T21:25:07.998Z,100780.47
2022-12-20T21:30:08.558Z,100774.35
2022-12-20T21:35:08.145Z,100769.72
2022-12-20T21:40:09.203Z,100761.65999999999
2022-12-20T21:45:10.979Z,100774.05
2022-12-20T21:50:07.937Z,100768.55
2022-12-20T21:55:08.243Z,100759.22
2022-12-20T22:00:10.340Z,100759.77
2022-12-20T22:05:08.504Z,100752.11
2022-12-20T22:10:08.483Z,100742.98999999999
2022-12-20T22:15:08.611Z,100735.20999999999
2022-12-20T22:20:07.861Z,100733.86
2022-12-20T22:25:08.209Z,100731.48
2022-12-20T22:30:09.283Z,100719.81
2022-12-20T22:35:07.926Z,100715.47
2022-12-20T22:40:08.524Z,100713.72
2022-12-20T22:45:08.580Z,100714.26
2022-12-20T22:50:09.727Z,100713.44
2022-12-20T22:55:08.653Z,100716.8
2022-12-20T23:00:12.077Z,100703.29000000001
2022-12-20T23:05:08.100Z,100689.06
2022-12-20T23:10:18.260Z,100686.6
2022-12-20T23:15:20.398Z,100686.19
2022-12-20T23:20:17.951Z,100684.20999999999
2022-12-20T23:25:11.608Z,100664.94
2022-12-20T23:30:10.092Z,100679.0
2022-12-20T23:35:12.417Z,100671.67
2022-12-20T23:40:09.338Z,100661.87999999999
2022-12-20T23:45:09.538Z,100659.55
2022-12-20T23:50:07.934Z,100646.75
2022-12-20T23:55:07.710Z,100636.45
